createdAt,value
2022-11-08T00:02:21.369Z,12.43
2022-11-08T00:04:48.010Z,12.41
2022-11-08T00:07:33.199Z,12.39
2022-11-08T00:10:18.322Z,12.39
2022-11-08T00:13:03.416Z,12.37
2022-11-08T00:15:34.726Z,12.36
2022-11-08T00:18:01.363Z,12.34
2022-11-08T00:20:27.952Z,12.30
2022-11-08T00:22:54.536Z,12.27
2022-11-08T00:25:21.170Z,12.23
2022-11-08T00:27:47.772Z,12.21
2022-11-08T00:30:14.614Z,12.21
2022-11-08T00:32:41.244Z,12.17
2022-11-08T00:35:08.337Z,12.11
2022-11-08T00:37:34.952Z,12.08
2022-11-08T00:40:01.556Z,12.10
2022-11-08T00:42:28.190Z,12.11
2022-11-08T00:44:54.772Z,12.13
2022-11-08T00:47:21.377Z,12.14
2022-11-08T00:49:47.947Z,12.11
2022-11-08T00:52:14.504Z,12.08
2022-11-08T00:54:41.098Z,12.06
2022-11-08T00:57:07.669Z,12.03
2022-11-08T00:59:34.315Z,12.00
2022-11-08T01:02:00.983Z,12.01
2022-11-08T01:04:27.599Z,11.98
2022-11-08T01:06:54.262Z,11.90
2022-11-08T01:09:20.889Z,11.86
2022-11-08T01:11:50.017Z,11.83
2022-11-08T01:14:16.611Z,11.83
2022-11-08T01:16:43.653Z,11.84
2022-11-08T01:19:10.184Z,11.82
2022-11-08T01:21:37.438Z,11.78
2022-11-08T01:24:04.247Z,11.79
2022-11-08T01:26:30.936Z,11.77
2022-11-08T01:28:58.536Z,11.77
2022-11-08T01:31:29.848Z,11.77
2022-11-08T01:33:57.601Z,11.78
2022-11-08T01:36:26.127Z,11.74
2022-11-08T01:38:53.538Z,11.68
2022-11-08T01:41:22.690Z,11.63
2022-11-08T01:43:51.544Z,11.65
2022-11-08T01:46:19.174Z,11.60
2022-11-08T01:48:49.615Z,11.61
2022-11-08T01:51:20.712Z,11.61
2022-11-08T01:53:47.874Z,11.64
2022-11-08T01:56:15.507Z,11.64
2022-11-08T01:58:45.564Z,11.63
2022-11-08T02:01:13.034Z,11.63
2022-11-08T02:03:41.607Z,11.63
2022-11-08T02:06:08.626Z,11.61
2022-11-08T02:08:39.623Z,11.57
2022-11-08T02:11:07.959Z,11.53
2022-11-08T02:13:37.601Z,11.50
2022-11-08T02:16:10.974Z,11.46
2022-11-08T02:18:37.559Z,11.43
2022-11-08T02:21:13.196Z,11.46
2022-11-08T02:23:52.172Z,11.47
2022-11-08T02:26:22.351Z,11.43
2022-11-08T02:28:49.595Z,11.46
2022-11-08T02:31:18.636Z,11.43
2022-11-08T02:33:46.145Z,11.46
2022-11-08T02:36:17.317Z,11.49
2022-11-08T02:38:49.216Z,11.46
2022-11-08T02:41:15.704Z,11.47
2022-11-08T02:43:42.247Z,11.45
2022-11-08T02:46:08.786Z,11.41
2022-11-08T02:48:35.270Z,11.39
2022-11-08T02:51:02.000Z,11.39
2022-11-08T02:53:28.509Z,11.34
2022-11-08T02:55:55.449Z,11.32
2022-11-08T02:58:24.103Z,11.29
2022-11-08T03:00:50.575Z,11.27
2022-11-08T03:03:17.053Z,11.24
2022-11-08T03:05:43.609Z,11.28
2022-11-08T03:08:10.161Z,11.30
2022-11-08T03:10:36.680Z,11.30
2022-11-08T03:13:05.198Z,11.30
2022-11-08T03:15:32.667Z,11.33
2022-11-08T03:18:00.161Z,11.29
2022-11-08T03:20:32.129Z,11.26
2022-11-08T03:23:00.468Z,11.28
2022-11-08T03:25:27.149Z,11.30
2022-11-08T03:27:53.788Z,11.31
2022-11-08T03:30:20.937Z,11.29
2022-11-08T03:32:49.769Z,11.29
2022-11-08T03:35:16.848Z,11.30
2022-11-08T03:37:51.053Z,11.31
2022-11-08T03:40:18.830Z,11.30
2022-11-08T03:42:46.066Z,11.27
2022-11-08T03:45:13.488Z,11.24
2022-11-08T03:47:42.983Z,11.23
2022-11-08T03:50:10.938Z,11.26
2022-11-08T03:52:49.054Z,11.25
2022-11-08T03:55:16.985Z,11.21
2022-11-08T03:57:46.097Z,11.18
2022-11-08T04:00:14.439Z,11.14
2022-11-08T04:02:41.374Z,11.11
2022-11-08T04:05:10.665Z,11.09
2022-11-08T04:07:37.900Z,11.09
2022-11-08T04:10:06.019Z,11.09
2022-11-08T04:12:51.009Z,11.05
2022-11-08T04:15:20.814Z,11.03
2022-11-08T04:18:08.553Z,11.02
2022-11-08T04:20:59.655Z,10.99
2022-11-08T04:23:26.986Z,11.00
2022-11-08T04:25:55.958Z,10.99
2022-11-08T04:28:26.251Z,11.01
2022-11-08T04:30:54.793Z,11.02
2022-11-08T04:33:21.414Z,11.00
2022-11-08T04:35:48.815Z,10.97
2022-11-08T04:38:16.200Z,10.94
2022-11-08T04:40:43.181Z,10.94
2022-11-08T04:43:09.694Z,10.93
2022-11-08T04:45:36.355Z,10.94
2022-11-08T04:48:02.887Z,10.93
2022-11-08T04:50:29.466Z,10.93
2022-11-08T04:52:56.138Z,10.93
2022-11-08T04:55:23.332Z,10.91
2022-11-08T04:57:50.287Z,10.92
2022-11-08T05:00:17.188Z,10.91
2022-11-08T05:02:43.829Z,10.93
2022-11-08T05:05:10.612Z,10.91
2022-11-08T05:07:37.147Z,10.89
2022-11-08T05:10:04.017Z,10.85
2022-11-08T05:12:30.500Z,10.82
2022-11-08T05:14:57.037Z,10.85
2022-11-08T05:17:23.567Z,10.86
2022-11-08T05:20:08.769Z,10.85
2022-11-08T05:22:53.813Z,10.87
2022-11-08T05:25:20.373Z,10.85
2022-11-08T05:27:46.841Z,10.84
2022-11-08T05:30:13.473Z,10.80
2022-11-08T05:32:39.991Z,10.78
2022-11-08T05:35:07.126Z,10.79
2022-11-08T05:37:33.578Z,10.78
2022-11-08T05:40:00.042Z,10.77
2022-11-08T05:42:26.562Z,10.77
2022-11-08T05:44:53.061Z,10.77
2022-11-08T05:47:19.589Z,10.76
2022-11-08T05:49:46.055Z,10.77
2022-11-08T05:52:12.563Z,10.73
2022-11-08T05:54:39.006Z,10.74
2022-11-08T05:57:05.521Z,10.77
2022-11-08T05:59:32.042Z,10.74
2022-11-08T06:01:58.600Z,10.73
2022-11-08T06:04:25.211Z,10.70
2022-11-08T06:06:51.704Z,10.69
2022-11-08T06:09:19.248Z,10.70
2022-11-08T06:11:45.759Z,10.70
2022-11-08T06:14:13.425Z,10.70
2022-11-08T06:16:39.997Z,10.69
2022-11-08T06:19:06.533Z,10.68
2022-11-08T06:21:33.071Z,10.70
2022-11-08T06:24:00.792Z,10.71
2022-11-08T06:26:27.416Z,10.73
2022-11-08T06:28:53.938Z,10.69
2022-11-08T06:31:20.475Z,10.68
2022-11-08T06:33:47.114Z,10.68
2022-11-08T06:36:13.743Z,10.69
2022-11-08T06:38:40.207Z,10.71
2022-11-08T06:41:06.767Z,10.72
2022-11-08T06:43:35.180Z,10.69
2022-11-08T06:46:03.236Z,10.70
2022-11-08T06:48:35.582Z,10.71
2022-11-08T06:51:03.220Z,10.70
2022-11-08T06:53:29.918Z,10.67
2022-11-08T06:55:56.466Z,10.68
2022-11-08T06:58:23.003Z,10.67
2022-11-08T07:01:51.272Z,10.68
2022-11-08T07:14:23.253Z,10.71
2022-11-08T07:16:50.785Z,10.68
2022-11-08T07:19:17.263Z,10.69
2022-11-08T07:21:43.748Z,10.73
2022-11-08T07:24:10.313Z,10.73
2022-11-08T07:26:37.784Z,10.73
2022-11-08T07:29:04.316Z,10.74
2022-11-08T07:31:30.811Z,10.75
2022-11-08T07:33:57.311Z,10.77
2022-11-08T07:36:23.770Z,10.81
2022-11-08T07:38:53.026Z,10.88
2022-11-08T07:41:19.583Z,10.94
2022-11-08T07:43:46.166Z,10.96
2022-11-08T07:46:12.702Z,10.99
2022-11-08T07:48:39.230Z,11.02
2022-11-08T07:51:05.926Z,11.05
2022-11-08T07:53:32.440Z,11.07
2022-11-08T07:55:58.930Z,11.14
2022-11-08T07:58:25.684Z,11.19
2022-11-08T08:00:52.424Z,11.22
2022-11-08T08:03:19.390Z,11.24
2022-11-08T08:05:58.032Z,11.27
2022-11-08T08:08:27.322Z,11.30
2022-11-08T08:10:58.207Z,11.32
2022-11-08T08:13:24.699Z,11.36
2022-11-08T08:15:51.173Z,11.38
2022-11-08T08:18:20.933Z,11.40
2022-11-08T08:20:47.413Z,11.44
2022-11-08T08:23:13.971Z,11.46
2022-11-08T08:25:40.451Z,11.50
2022-11-08T08:28:07.407Z,11.51
2022-11-08T08:30:34.386Z,11.55
2022-11-08T08:33:26.912Z,11.58
2022-11-08T08:35:52.708Z,11.60
2022-11-08T08:38:19.315Z,11.63
2022-11-08T08:40:45.902Z,11.65
2022-11-08T08:43:12.408Z,11.67
2022-11-08T08:45:38.943Z,11.67
2022-11-08T08:48:05.740Z,11.69
2022-11-08T08:50:32.976Z,11.72
2022-11-08T08:53:00.725Z,11.74
2022-11-08T08:55:27.932Z,11.76
2022-11-08T08:57:54.525Z,11.75
2022-11-08T09:03:09.548Z,11.81
2022-11-08T09:05:36.714Z,11.84
2022-11-08T09:08:03.755Z,11.87
2022-11-08T09:10:30.391Z,11.92
2022-11-08T09:12:56.876Z,11.96
2022-11-08T09:15:23.534Z,11.97
2022-11-08T09:17:50.088Z,11.99
2022-11-08T09:20:16.630Z,12.02
2022-11-08T09:22:43.086Z,12.03
2022-11-08T09:25:10.531Z,12.05
2022-11-08T09:27:37.159Z,12.08
2022-11-08T09:30:05.312Z,12.10
2022-11-08T09:32:46.698Z,12.12
2022-11-08T09:35:18.400Z,12.14
2022-11-08T09:37:47.186Z,12.14
2022-11-08T09:40:20.271Z,12.17
2022-11-08T09:43:05.809Z,12.22
2022-11-08T09:45:41.948Z,12.25
2022-11-08T09:48:21.843Z,12.28
2022-11-08T09:50:52.238Z,12.31
2022-11-08T09:53:31.606Z,12.33
2022-11-08T09:56:06.415Z,12.35
2022-11-08T09:58:42.016Z,12.38
2022-11-08T10:01:11.775Z,12.47
2022-11-08T10:03:38.581Z,12.53
2022-11-08T10:06:17.805Z,12.58
2022-11-08T10:08:56.783Z,12.63
2022-11-08T10:11:35.900Z,12.65
2022-11-08T10:14:22.778Z,12.67
2022-11-08T10:20:26.966Z,12.73
2022-11-08T10:23:14.445Z,12.75
2022-11-08T10:25:49.750Z,12.78
2022-11-08T10:28:22.112Z,12.82
2022-11-08T10:30:50.972Z,12.86
2022-11-08T10:33:34.428Z,12.91
2022-11-08T10:36:11.462Z,12.92
2022-11-08T10:38:52.607Z,12.92
2022-11-08T10:41:31.931Z,12.91
2022-11-08T10:44:13.324Z,12.90
2022-11-08T10:46:48.577Z,12.90
2022-11-08T10:49:22.836Z,12.91
2022-11-08T10:51:53.082Z,12.94
2022-11-08T10:54:42.670Z,12.98
2022-11-08T10:57:11.340Z,12.99
2022-11-08T10:59:38.037Z,13.01
2022-11-08T11:02:20.493Z,13.04
2022-11-08T11:04:47.147Z,13.08
2022-11-08T11:07:30.692Z,13.17
2022-11-08T11:09:57.194Z,13.23
2022-11-08T11:12:23.697Z,13.24
2022-11-08T11:14:57.849Z,13.26
2022-11-08T11:17:34.226Z,13.27
2022-11-08T11:20:04.335Z,13.30
2022-11-08T11:22:34.447Z,13.33
2022-11-08T11:25:17.807Z,13.35
2022-11-08T11:27:50.751Z,13.36
2022-11-08T11:30:24.496Z,13.38
2022-11-08T11:33:00.565Z,13.39
2022-11-08T11:35:35.704Z,13.41
2022-11-08T11:38:06.683Z,13.46
2022-11-08T11:40:41.465Z,13.48
2022-11-08T11:43:20.959Z,13.50
2022-11-08T11:46:04.634Z,13.52
2022-11-08T11:48:36.449Z,13.52
2022-11-08T11:51:03.218Z,13.53
2022-11-08T11:53:33.183Z,13.52
2022-11-08T11:56:13.808Z,13.51
2022-11-08T11:58:47.644Z,13.54
2022-11-08T12:01:24.186Z,13.59
2022-11-08T12:03:57.537Z,13.63
2022-11-08T12:06:45.015Z,13.65
2022-11-08T12:09:21.024Z,13.68
2022-11-08T12:12:06.384Z,13.72
2022-11-08T12:14:38.209Z,13.77
2022-11-08T12:17:16.298Z,13.82
2022-11-08T12:20:11.271Z,13.83
2022-11-08T12:23:01.361Z,13.82
2022-11-08T12:26:04.829Z,13.86
2022-11-08T12:28:42.078Z,13.86
2022-11-08T12:31:34.657Z,13.88
2022-11-08T12:34:19.464Z,13.89
2022-11-08T12:37:08.157Z,13.89
2022-11-08T12:39:45.831Z,13.90
2022-11-08T12:42:32.635Z,13.89
2022-11-08T12:45:26.640Z,13.90
2022-11-08T12:48:06.441Z,13.93
2022-11-08T12:50:54.356Z,13.95
2022-11-08T12:53:38.837Z,13.97
2022-11-08T12:56:10.717Z,13.98
2022-11-08T12:58:47.161Z,13.98
2022-11-08T13:01:17.610Z,13.96
2022-11-08T13:03:49.928Z,13.97
2022-11-08T13:06:19.494Z,13.97
2022-11-08T13:08:57.900Z,13.98
2022-11-08T13:11:36.310Z,14.00
2022-11-08T13:14:04.896Z,14.02
2022-11-08T13:16:39.192Z,14.05
2022-11-08T13:19:29.797Z,14.07
2022-11-08T13:21:56.459Z,14.08
2022-11-08T13:27:31.605Z,14.10
2022-11-08T13:30:22.651Z,14.14
2022-11-08T13:32:58.313Z,14.16
2022-11-08T13:35:24.732Z,14.14
2022-11-08T13:37:52.274Z,14.15
2022-11-08T13:40:27.494Z,14.17
2022-11-08T13:43:14.720Z,14.16
2022-11-08T13:45:41.458Z,14.16
2022-11-08T13:48:24.869Z,14.16
2022-11-08T13:51:18.570Z,14.16
2022-11-08T13:53:49.759Z,14.16
2022-11-08T13:56:25.542Z,14.15
2022-11-08T13:58:53.423Z,14.14
2022-11-08T14:01:20.951Z,14.14
2022-11-08T14:03:47.525Z,14.13
2022-11-08T14:06:19.268Z,14.14
2022-11-08T14:08:55.744Z,14.12
2022-11-08T14:11:30.926Z,14.12
2022-11-08T14:35:32.919Z,14.00
2022-11-08T14:37:59.594Z,13.99
2022-11-08T14:40:29.344Z,14.01
2022-11-08T14:42:56.895Z,13.99
2022-11-08T14:45:29.201Z,13.99
2022-11-08T14:48:04.498Z,13.98
2022-11-08T14:50:33.879Z,13.97
2022-11-08T14:53:21.183Z,13.96
2022-11-08T14:55:53.736Z,13.95
2022-11-08T14:58:21.511Z,13.95
2022-11-08T15:00:49.631Z,13.91
2022-11-08T15:03:19.538Z,13.89
2022-11-08T15:06:00.945Z,13.89
2022-11-08T15:08:31.616Z,13.89
2022-11-08T15:11:04.042Z,13.90
2022-11-08T15:13:38.399Z,13.89
2022-11-08T15:16:06.869Z,13.90
2022-11-08T15:18:41.490Z,13.88
2022-11-08T15:21:23.459Z,13.86
2022-11-08T15:23:53.825Z,13.86
2022-11-08T15:26:26.084Z,13.85
2022-11-08T15:29:17.272Z,13.84
2022-11-08T15:31:50.995Z,13.82
2022-11-08T15:34:21.751Z,13.80
2022-11-08T15:36:48.965Z,13.78
2022-11-08T15:39:25.283Z,13.80
2022-11-08T15:42:13.116Z,13.78
2022-11-08T15:44:59.111Z,13.74
2022-11-08T15:47:34.830Z,13.72
2022-11-08T15:50:01.886Z,13.70
2022-11-08T15:52:28.399Z,13.70
2022-11-08T15:54:55.030Z,13.66
2022-11-08T15:57:22.637Z,13.64
2022-11-08T15:59:49.129Z,13.62
2022-11-08T16:02:15.892Z,13.60
2022-11-08T16:04:42.349Z,13.58
2022-11-08T16:07:09.042Z,13.54
2022-11-08T16:09:35.571Z,13.50
2022-11-08T16:12:03.252Z,13.47
2022-11-08T16:14:29.889Z,13.46
2022-11-08T16:16:58.331Z,13.45
2022-11-08T16:19:25.277Z,13.42
2022-11-08T16:21:52.557Z,13.38
2022-11-08T16:24:20.224Z,13.36
2022-11-08T16:26:47.322Z,13.36
2022-11-08T16:29:20.475Z,13.33
2022-11-08T16:31:48.056Z,13.31
2022-11-08T16:34:14.661Z,13.26
2022-11-08T16:36:44.531Z,13.24
2022-11-08T16:39:17.862Z,13.23
2022-11-08T16:41:44.765Z,13.20
2022-11-08T16:44:11.683Z,13.19
2022-11-08T16:46:39.601Z,13.15
2022-11-08T16:49:07.194Z,13.14
2022-11-08T16:51:33.838Z,13.09
2022-11-08T16:54:02.795Z,13.08
2022-11-08T16:56:29.455Z,13.06
2022-11-08T16:58:55.959Z,13.04
2022-11-08T17:01:33.059Z,13.03
2022-11-08T17:03:59.648Z,13.03
2022-11-08T17:06:27.372Z,13.07
2022-11-08T17:08:54.009Z,13.11
2022-11-08T17:11:23.133Z,13.14
2022-11-08T17:13:50.484Z,13.16
2022-11-08T17:16:18.600Z,13.19
2022-11-08T17:18:49.788Z,13.19
2022-11-08T17:24:06.183Z,13.19
2022-11-08T17:26:32.786Z,13.18
2022-11-08T17:28:59.269Z,13.18
2022-11-08T17:31:25.958Z,13.16
2022-11-08T17:33:54.804Z,13.13
2022-11-08T17:36:21.357Z,13.13
2022-11-08T17:38:47.923Z,13.09
2022-11-08T17:41:15.701Z,13.07
2022-11-08T17:43:43.142Z,13.04
2022-11-08T17:46:11.816Z,13.03
2022-11-08T17:48:39.243Z,13.01
2022-11-08T17:51:06.332Z,13.01
2022-11-08T17:53:34.020Z,12.97
2022-11-08T17:56:02.841Z,12.95
2022-11-08T17:58:32.431Z,12.97
2022-11-08T18:00:59.545Z,12.98
2022-11-08T18:03:27.021Z,12.96
2022-11-08T18:05:57.026Z,12.96
2022-11-08T18:08:27.167Z,12.93
2022-11-08T18:10:55.660Z,12.91
2022-11-08T18:13:24.433Z,12.90
2022-11-08T18:15:51.442Z,12.90
2022-11-08T18:18:18.965Z,12.92
2022-11-08T18:20:53.411Z,12.97
2022-11-08T18:23:20.276Z,13.00
2022-11-08T18:25:51.774Z,13.02
2022-11-08T18:28:18.296Z,13.04
2022-11-08T18:30:47.965Z,13.03
2022-11-08T18:33:15.596Z,13.04
2022-11-08T18:35:43.375Z,13.04
2022-11-08T18:38:11.409Z,13.06
2022-11-08T18:40:38.422Z,13.09
2022-11-08T18:43:05.283Z,13.09
2022-11-08T18:45:31.926Z,13.11
2022-11-08T18:47:58.526Z,13.11
2022-11-08T18:50:25.059Z,13.09
2022-11-08T18:52:51.662Z,13.08
2022-11-08T18:55:18.244Z,13.07
2022-11-08T18:57:46.077Z,13.08
2022-11-08T19:00:12.888Z,13.04
2022-11-08T19:02:39.691Z,13.03
2022-11-08T19:05:23.003Z,13.03
2022-11-08T19:08:05.120Z,13.03
2022-11-08T19:10:31.711Z,13.04
2022-11-08T19:12:58.202Z,13.04
2022-11-08T19:15:27.458Z,13.03
2022-11-08T19:21:04.218Z,12.95
2022-11-08T19:23:34.799Z,12.95
2022-11-08T19:26:05.141Z,12.96
2022-11-08T19:28:34.135Z,12.96
2022-11-08T19:31:00.872Z,12.97
2022-11-08T19:33:30.303Z,12.97
2022-11-08T19:36:06.677Z,12.96
2022-11-08T19:38:36.078Z,12.97
2022-11-08T19:41:04.131Z,12.95
2022-11-08T19:43:32.331Z,12.96
2022-11-08T19:46:02.557Z,12.94
2022-11-08T19:48:31.745Z,12.94
2022-11-08T19:51:01.754Z,12.93
2022-11-08T19:53:28.749Z,12.88
2022-11-08T19:56:06.498Z,12.88
2022-11-08T19:58:34.031Z,12.85
2022-11-08T20:01:11.196Z,12.84
2022-11-08T20:03:38.789Z,12.83
2022-11-08T20:06:06.571Z,12.80
2022-11-08T20:08:33.404Z,12.82
2022-11-08T20:11:00.432Z,12.80
2022-11-08T20:13:27.286Z,12.78
2022-11-08T20:15:53.840Z,12.75
2022-11-08T20:18:20.843Z,12.76
2022-11-08T20:20:47.673Z,12.78
2022-11-08T20:23:16.730Z,12.78
2022-11-08T20:25:43.443Z,12.80
2022-11-08T20:28:10.035Z,12.80
2022-11-08T20:30:36.679Z,12.82
2022-11-08T20:33:03.281Z,12.82
2022-11-08T20:35:29.822Z,12.83
2022-11-08T20:37:58.334Z,12.78
2022-11-08T20:40:24.950Z,12.76
2022-11-08T20:42:51.564Z,12.75
2022-11-08T20:45:18.187Z,12.77
2022-11-08T20:47:44.786Z,12.80
2022-11-08T20:50:11.339Z,12.77
2022-11-08T20:52:37.887Z,12.76
2022-11-08T20:55:05.836Z,12.76
2022-11-08T20:57:32.438Z,12.77
2022-11-08T21:00:11.561Z,12.70
2022-11-08T21:02:39.520Z,12.66
2022-11-08T21:05:06.577Z,12.65
2022-11-08T21:08:01.907Z,12.63
2022-11-08T21:10:41.425Z,12.61
2022-11-08T21:13:06.172Z,12.58
2022-11-08T21:15:32.740Z,12.57
2022-11-08T21:17:59.280Z,12.52
2022-11-08T21:20:26.838Z,12.48
2022-11-08T21:22:54.473Z,12.51
2022-11-08T21:25:21.755Z,12.50
2022-11-08T21:27:48.276Z,12.48
2022-11-08T21:30:14.823Z,12.42
2022-11-08T21:32:41.268Z,12.39
2022-11-08T21:35:08.178Z,12.35
2022-11-08T21:37:34.838Z,12.33
2022-11-08T21:40:01.520Z,12.31
2022-11-08T21:42:29.089Z,12.29
2022-11-08T21:44:55.634Z,12.29
2022-11-08T21:47:22.313Z,12.30
2022-11-08T21:49:48.871Z,12.29
2022-11-08T21:52:15.456Z,12.28
2022-11-08T21:54:42.435Z,12.29
2022-11-08T21:57:09.010Z,12.28
2022-11-08T21:59:35.533Z,12.28
2022-11-08T22:02:02.075Z,12.30
2022-11-08T22:04:28.590Z,12.24
2022-11-08T22:06:55.220Z,12.21
2022-11-08T22:09:21.779Z,12.19
2022-11-08T22:11:48.516Z,12.16
2022-11-08T22:14:16.375Z,12.16
2022-11-08T22:16:42.919Z,12.20
2022-11-08T22:19:09.833Z,12.20
2022-11-08T22:21:38.168Z,12.20
2022-11-08T22:24:05.407Z,12.20
2022-11-08T22:26:32.283Z,12.16
2022-11-08T22:28:58.816Z,12.16
2022-11-08T22:31:25.362Z,12.20
2022-11-08T22:33:51.927Z,12.19
2022-11-08T22:36:19.530Z,12.21
2022-11-08T22:38:46.759Z,12.17
2022-11-08T22:41:18.415Z,12.15
2022-11-08T22:43:45.590Z,12.15
2022-11-08T22:46:13.359Z,12.12
2022-11-08T22:48:40.507Z,12.11
2022-11-08T22:51:07.632Z,12.09
2022-11-08T22:53:34.237Z,12.07
2022-11-08T22:56:01.203Z,12.08
2022-11-08T22:58:28.663Z,12.05
2022-11-08T23:00:55.296Z,12.02
2022-11-08T23:03:23.959Z,11.99
2022-11-08T23:05:52.047Z,11.97
2022-11-08T23:08:19.991Z,11.97
2022-11-08T23:11:05.529Z,11.94
2022-11-08T23:13:50.587Z,11.95
2022-11-08T23:16:33.090Z,11.98
2022-11-08T23:19:19.520Z,12.03
2022-11-08T23:22:04.978Z,12.10
2022-11-08T23:24:31.762Z,12.10
2022-11-08T23:27:19.008Z,12.09
2022-11-08T23:30:06.129Z,12.12
2022-11-08T23:32:33.378Z,12.15
2022-11-08T23:34:59.903Z,12.19
2022-11-08T23:37:27.339Z,12.23
2022-11-08T23:40:12.432Z,12.23
2022-11-08T23:42:57.697Z,12.25
2022-11-08T23:45:24.172Z,12.25
2022-11-08T23:47:52.510Z,12.25
2022-11-08T23:50:19.025Z,12.25
2022-11-08T23:52:45.527Z,12.26
2022-11-08T23:55:12.058Z,12.25
2022-11-08T23:57:38.564Z,12.25
